EGMC/SEN METAR and TAF weather

Enter ICAO airport designator
Station Type Date Time Source
EGMC METAR 2020/07/07 10:20 UTC NOAA

EGMC 071020Z 23010KT 9999 SCT045 19/08 Q1020


Station Type Date Time Source
EGMC Decoded METAR 2020/07/07 10:20 UTC NOAA

Southend-On-Sea , United Kingdom (EGMC) 51-34N 000-42E
Jul 07, 2020 - 06:20 AM EDT / 2020.07.07 1020 UTC
Wind: from the SW (230 degrees) at 12 MPH (10 KT):0
Visibility: greater than 7 mile(s):0
Sky conditions: partly cloudy
Temperature: 66 F (19 C)
Dew Point: 46 F (8 C)
Relative Humidity: 48%
Pressure (altimeter): 30.12 in. Hg (1020 hPa)
ob: EGMC 071020Z 23010KT 9999 SCT045 19/08 Q1020
cycle: 10

Station Type Date Time Source
EGMC TAF 2016/04/18 18:00 UTC NOAA

TAF EGMC 181658Z 1818/1903 28008KT 9999 BKN045

Example: see airport list